<?xml version="1.0" encoding="utf-8"?>
<gpx xmlns:xsi="http://www.w3.org/2001/XMLSchema-instance" xmlns:xsd="http://www.w3.org/2001/XMLSchema" version="1.1" creator="Shapelink.com" xmlns="http://www.topografix.com/GPX/1/1" xmlns:gpxtpx="http://www.garmin.com/xmlschemas/TrackPointExtension/v1">
  <metadata>
    <name>Löpning 5.06 km, 2019-01-24</name>
    <desc></desc>
    <author><name>Marian Moron</name></author> 
    <time>2019-01-24T22:17:10Z</time>
  </metadata>
  <trk>
    <name>Löpning 5.06 km, 2019-01-24</name>
    <trkseg>
      <trkpt lat="51.229959564464" lon="4.458634023124">
        <ele>3</ele>
        <time>2019-01-24T22:17:10Z</time>
      </trkpt>
      <trkpt lat="51.230044305473" lon="4.45889168273">
        <ele>0.8</ele>
        <time>2019-01-24T22:17:18Z</time>
      </trkpt>
      <trkpt lat="51.230234406965" lon="4.458830075765">
        <ele>0</ele>
        <time>2019-01-24T22:17:27Z</time>
      </trkpt>
      <trkpt lat="51.230413192892" lon="4.458883552287">
        <ele>0</ele>
        <time>2019-01-24T22:17:34Z</time>
      </trkpt>
      <trkpt lat="51.230499023548" lon="4.459148420327">
        <ele>0</ele>
        <time>2019-01-24T22:17:41Z</time>
      </trkpt>
      <trkpt lat="51.23052819256" lon="4.459450504003">
        <ele>0</ele>
        <time>2019-01-24T22:17:48Z</time>
      </trkpt>
      <trkpt lat="51.230560630513" lon="4.459752084765">
        <ele>1.4</ele>
        <time>2019-01-24T22:17:55Z</time>
      </trkpt>
      <trkpt lat="51.230680407864" lon="4.459963224826">
        <ele>2</ele>
        <time>2019-01-24T22:18:03Z</time>
      </trkpt>
      <trkpt lat="51.230753414213" lon="4.460228009047">
        <ele>1</ele>
        <time>2019-01-24T22:18:10Z</time>
      </trkpt>
      <trkpt lat="51.230764143045" lon="4.460541324469">
        <ele>0.6</ele>
        <time>2019-01-24T22:18:17Z</time>
      </trkpt>
      <trkpt lat="51.230772524945" lon="4.460830835295">
        <ele>0.2</ele>
        <time>2019-01-24T22:18:24Z</time>
      </trkpt>
      <trkpt lat="51.23087185046" lon="4.461110455479">
        <ele>0</ele>
        <time>2019-01-24T22:18:32Z</time>
      </trkpt>
      <trkpt lat="51.230952149062" lon="4.461403235246">
        <ele>0</ele>
        <time>2019-01-24T22:18:41Z</time>
      </trkpt>
      <trkpt lat="51.231073518974" lon="4.461620410275">
        <ele>0</ele>
        <time>2019-01-24T22:18:48Z</time>
      </trkpt>
      <trkpt lat="51.231164797865" lon="4.461871112904">
        <ele>0</ele>
        <time>2019-01-24T22:18:55Z</time>
      </trkpt>
      <trkpt lat="51.231178041267" lon="4.462163892671">
        <ele>0</ele>
        <time>2019-01-24T22:19:03Z</time>
      </trkpt>
      <trkpt lat="51.231196146171" lon="4.462463713234">
        <ele>0</ele>
        <time>2019-01-24T22:19:12Z</time>
      </trkpt>
      <trkpt lat="51.231306451975" lon="4.46272304922">
        <ele>0</ele>
        <time>2019-01-24T22:19:20Z</time>
      </trkpt>
      <trkpt lat="51.23138063179" lon="4.462999987196">
        <ele>0</ele>
        <time>2019-01-24T22:19:28Z</time>
      </trkpt>
      <trkpt lat="51.231375183555" lon="4.463319505224">
        <ele>0</ele>
        <time>2019-01-24T22:19:36Z</time>
      </trkpt>
      <trkpt lat="51.2313546479" lon="4.463618068502">
        <ele>0</ele>
        <time>2019-01-24T22:19:43Z</time>
      </trkpt>
      <trkpt lat="51.231327742001" lon="4.46391076445">
        <ele>0</ele>
        <time>2019-01-24T22:19:51Z</time>
      </trkpt>
      <trkpt lat="51.231328915467" lon="4.464203460398">
        <ele>0</ele>
        <time>2019-01-24T22:19:59Z</time>
      </trkpt>
      <trkpt lat="51.231287005967" lon="4.464485846609">
        <ele>0</ele>
        <time>2019-01-24T22:20:07Z</time>
      </trkpt>
      <trkpt lat="51.231336710634" lon="4.464757252531">
        <ele>0</ele>
        <time>2019-01-24T22:20:16Z</time>
      </trkpt>
      <trkpt lat="51.231348361475" lon="4.465040896027">
        <ele>0</ele>
        <time>2019-01-24T22:20:24Z</time>
      </trkpt>
      <trkpt lat="51.231300417007" lon="4.46532395279">
        <ele>0</ele>
        <time>2019-01-24T22:20:31Z</time>
      </trkpt>
      <trkpt lat="51.231267224683" lon="4.465622096973">
        <ele>0</ele>
        <time>2019-01-24T22:20:39Z</time>
      </trkpt>
      <trkpt lat="51.231202264958" lon="4.465895682189">
        <ele>0</ele>
        <time>2019-01-24T22:20:47Z</time>
      </trkpt>
      <trkpt lat="51.231182651312" lon="4.466216708959">
        <ele>0</ele>
        <time>2019-01-24T22:20:55Z</time>
      </trkpt>
      <trkpt lat="51.231106795117" lon="4.466481409361">
        <ele>0</ele>
        <time>2019-01-24T22:21:02Z</time>
      </trkpt>
      <trkpt lat="51.231028759628" lon="4.466758179699">
        <ele>0</ele>
        <time>2019-01-24T22:21:09Z</time>
      </trkpt>
      <trkpt lat="51.231061113762" lon="4.467049786">
        <ele>0</ele>
        <time>2019-01-24T22:21:16Z</time>
      </trkpt>
      <trkpt lat="51.231213329066" lon="4.467212478679">
        <ele>0</ele>
        <time>2019-01-24T22:21:24Z</time>
      </trkpt>
      <trkpt lat="51.231407872965" lon="4.467134275552">
        <ele>0</ele>
        <time>2019-01-24T22:21:32Z</time>
      </trkpt>
      <trkpt lat="51.231608954746" lon="4.467117763209">
        <ele>0</ele>
        <time>2019-01-24T22:21:40Z</time>
      </trkpt>
      <trkpt lat="51.23177290471" lon="4.46724089332">
        <ele>0</ele>
        <time>2019-01-24T22:21:46Z</time>
      </trkpt>
      <trkpt lat="51.231850688742" lon="4.467532751078">
        <ele>0</ele>
        <time>2019-01-24T22:21:52Z</time>
      </trkpt>
      <trkpt lat="51.231772988529" lon="4.467818573868">
        <ele>0</ele>
        <time>2019-01-24T22:21:58Z</time>
      </trkpt>
      <trkpt lat="51.231670477892" lon="4.46805980495">
        <ele>0</ele>
        <time>2019-01-24T22:22:04Z</time>
      </trkpt>
      <trkpt lat="51.231554807672" lon="4.468305981353">
        <ele>0</ele>
        <time>2019-01-24T22:22:11Z</time>
      </trkpt>
      <trkpt lat="51.231432096656" lon="4.468536064508">
        <ele>0</ele>
        <time>2019-01-24T22:22:18Z</time>
      </trkpt>
      <trkpt lat="51.231328244915" lon="4.468770757708">
        <ele>0</ele>
        <time>2019-01-24T22:22:25Z</time>
      </trkpt>
      <trkpt lat="51.231203186967" lon="4.468998493931">
        <ele>0</ele>
        <time>2019-01-24T22:22:32Z</time>
      </trkpt>
      <trkpt lat="51.23105709045" lon="4.469191026174">
        <ele>0</ele>
        <time>2019-01-24T22:22:39Z</time>
      </trkpt>
      <trkpt lat="51.230895738875" lon="4.469341565098">
        <ele>0</ele>
        <time>2019-01-24T22:22:46Z</time>
      </trkpt>
      <trkpt lat="51.230714438378" lon="4.46944952397">
        <ele>0</ele>
        <time>2019-01-24T22:22:54Z</time>
      </trkpt>
      <trkpt lat="51.230514194787" lon="4.46957441428">
        <ele>0</ele>
        <time>2019-01-24T22:23:02Z</time>
      </trkpt>
      <trkpt lat="51.230341360009" lon="4.469700058961">
        <ele>0</ele>
        <time>2019-01-24T22:23:10Z</time>
      </trkpt>
      <trkpt lat="51.230319650888" lon="4.469841126338">
        <ele>0</ele>
        <time>2019-01-24T22:23:14Z</time>
      </trkpt>
      <trkpt lat="51.230420401326" lon="4.470106413473">
        <ele>0</ele>
        <time>2019-01-24T22:23:21Z</time>
      </trkpt>
      <trkpt lat="51.230531629139" lon="4.470356864645">
        <ele>0</ele>
        <time>2019-01-24T22:23:29Z</time>
      </trkpt>
      <trkpt lat="51.230534227528" lon="4.470638999399">
        <ele>0</ele>
        <time>2019-01-24T22:23:36Z</time>
      </trkpt>
      <trkpt lat="51.230542777066" lon="4.470934293736">
        <ele>0</ele>
        <time>2019-01-24T22:23:43Z</time>
      </trkpt>
      <trkpt lat="51.230633301586" lon="4.471189438772">
        <ele>0</ele>
        <time>2019-01-24T22:23:50Z</time>
      </trkpt>
      <trkpt lat="51.230736147499" lon="4.471427820008">
        <ele>0</ele>
        <time>2019-01-24T22:23:57Z</time>
      </trkpt>
      <trkpt lat="51.230852152995" lon="4.471670643651">
        <ele>0</ele>
        <time>2019-01-24T22:24:05Z</time>
      </trkpt>
      <trkpt lat="51.230984587015" lon="4.471883795368">
        <ele>0</ele>
        <time>2019-01-24T22:24:13Z</time>
      </trkpt>
      <trkpt lat="51.231078631933" lon="4.472130390866">
        <ele>0</ele>
        <time>2019-01-24T22:24:21Z</time>
      </trkpt>
      <trkpt lat="51.23107720701" lon="4.472418979683">
        <ele>0</ele>
        <time>2019-01-24T22:24:30Z</time>
      </trkpt>
      <trkpt lat="51.230933457425" lon="4.472638417825">
        <ele>0</ele>
        <time>2019-01-24T22:24:38Z</time>
      </trkpt>
      <trkpt lat="51.230807645106" lon="4.47286263365">
        <ele>0</ele>
        <time>2019-01-24T22:24:45Z</time>
      </trkpt>
      <trkpt lat="51.230692729257" lon="4.473087184751">
        <ele>0.2</ele>
        <time>2019-01-24T22:24:53Z</time>
      </trkpt>
      <trkpt lat="51.230613268845" lon="4.473348448574">
        <ele>0</ele>
        <time>2019-01-24T22:25:00Z</time>
      </trkpt>
      <trkpt lat="51.230584183652" lon="4.473665452032">
        <ele>0</ele>
        <time>2019-01-24T22:25:07Z</time>
      </trkpt>
      <trkpt lat="51.230603126746" lon="4.473967619527">
        <ele>0</ele>
        <time>2019-01-24T22:25:15Z</time>
      </trkpt>
      <trkpt lat="51.230590553896" lon="4.474191667714">
        <ele>0</ele>
        <time>2019-01-24T22:25:23Z</time>
      </trkpt>
      <trkpt lat="51.230629948826" lon="4.474378667903">
        <ele>0.2</ele>
        <time>2019-01-24T22:25:29Z</time>
      </trkpt>
      <trkpt lat="51.230607988248" lon="4.474430468045">
        <ele>0</ele>
        <time>2019-01-24T22:25:31Z</time>
      </trkpt>
      <trkpt lat="51.230425765742" lon="4.474532391949">
        <ele>0.2</ele>
        <time>2019-01-24T22:25:38Z</time>
      </trkpt>
      <trkpt lat="51.230281429424" lon="4.474731629712">
        <ele>1</ele>
        <time>2019-01-24T22:25:45Z</time>
      </trkpt>
      <trkpt lat="51.230129046482" lon="4.474912175838">
        <ele>2.2</ele>
        <time>2019-01-24T22:25:52Z</time>
      </trkpt>
      <trkpt lat="51.229962917224" lon="4.47507880801">
        <ele>5.8</ele>
        <time>2019-01-24T22:25:59Z</time>
      </trkpt>
      <trkpt lat="51.229804164038" lon="4.475253654444">
        <ele>5.6</ele>
        <time>2019-01-24T22:26:06Z</time>
      </trkpt>
      <trkpt lat="51.229628395595" lon="4.475267903674">
        <ele>7</ele>
        <time>2019-01-24T22:26:13Z</time>
      </trkpt>
      <trkpt lat="51.229501577448" lon="4.47503857489">
        <ele>3.8</ele>
        <time>2019-01-24T22:26:20Z</time>
      </trkpt>
      <trkpt lat="51.229378531156" lon="4.47478125056">
        <ele>2</ele>
        <time>2019-01-24T22:26:27Z</time>
      </trkpt>
      <trkpt lat="51.229271578112" lon="4.474526608438">
        <ele>0</ele>
        <time>2019-01-24T22:26:34Z</time>
      </trkpt>
      <trkpt lat="51.229163870697" lon="4.474288646297">
        <ele>0</ele>
        <time>2019-01-24T22:26:41Z</time>
      </trkpt>
      <trkpt lat="51.229062701164" lon="4.474045655016">
        <ele>0</ele>
        <time>2019-01-24T22:26:48Z</time>
      </trkpt>
      <trkpt lat="51.228951305713" lon="4.473801238812">
        <ele>0.4</ele>
        <time>2019-01-24T22:26:55Z</time>
      </trkpt>
      <trkpt lat="51.228840748452" lon="4.473570652743">
        <ele>0.6</ele>
        <time>2019-01-24T22:27:02Z</time>
      </trkpt>
      <trkpt lat="51.228717869798" lon="4.47331357987">
        <ele>0</ele>
        <time>2019-01-24T22:27:10Z</time>
      </trkpt>
      <trkpt lat="51.228616700265" lon="4.473032870039">
        <ele>0.8</ele>
        <time>2019-01-24T22:27:18Z</time>
      </trkpt>
      <trkpt lat="51.228507484108" lon="4.472792309509">
        <ele>0</ele>
        <time>2019-01-24T22:27:26Z</time>
      </trkpt>
      <trkpt lat="51.228393741725" lon="4.472566165847">
        <ele>0</ele>
        <time>2019-01-24T22:27:33Z</time>
      </trkpt>
      <trkpt lat="51.228274551107" lon="4.47230775187">
        <ele>0</ele>
        <time>2019-01-24T22:27:40Z</time>
      </trkpt>
      <trkpt lat="51.228153684109" lon="4.472081105294">
        <ele>0</ele>
        <time>2019-01-24T22:27:47Z</time>
      </trkpt>
      <trkpt lat="51.228043713581" lon="4.471842137325">
        <ele>0</ele>
        <time>2019-01-24T22:27:54Z</time>
      </trkpt>
      <trkpt lat="51.22792561261" lon="4.471582633701">
        <ele>0</ele>
        <time>2019-01-24T22:28:02Z</time>
      </trkpt>
      <trkpt lat="51.227821425593" lon="4.471340145334">
        <ele>0</ele>
        <time>2019-01-24T22:28:09Z</time>
      </trkpt>
      <trkpt lat="51.227707012658" lon="4.4710814799">
        <ele>0</ele>
        <time>2019-01-24T22:28:17Z</time>
      </trkpt>
      <trkpt lat="51.227700307138" lon="4.470765398451">
        <ele>0</ele>
        <time>2019-01-24T22:28:25Z</time>
      </trkpt>
      <trkpt lat="51.227715646015" lon="4.470695409586">
        <ele>0</ele>
        <time>2019-01-24T22:28:26Z</time>
      </trkpt>
      <trkpt lat="51.227855120831" lon="4.470516623659">
        <ele>0</ele>
        <time>2019-01-24T22:28:34Z</time>
      </trkpt>
      <trkpt lat="51.228002977547" lon="4.470308752539">
        <ele>0</ele>
        <time>2019-01-24T22:28:42Z</time>
      </trkpt>
      <trkpt lat="51.228258793135" lon="4.469994179832">
        <ele>0</ele>
        <time>2019-01-24T22:28:54Z</time>
      </trkpt>
      <trkpt lat="51.228148654969" lon="4.469747751972">
        <ele>0</ele>
        <time>2019-01-24T22:29:02Z</time>
      </trkpt>
      <trkpt lat="51.228034493491" lon="4.469523117052">
        <ele>0</ele>
        <time>2019-01-24T22:29:09Z</time>
      </trkpt>
      <trkpt lat="51.227910860466" lon="4.469301080521">
        <ele>0</ele>
        <time>2019-01-24T22:29:17Z</time>
      </trkpt>
      <trkpt lat="51.227881859092" lon="4.46900528327">
        <ele>0</ele>
        <time>2019-01-24T22:29:25Z</time>
      </trkpt>
      <trkpt lat="51.227831902968" lon="4.468713425512">
        <ele>0</ele>
        <time>2019-01-24T22:29:34Z</time>
      </trkpt>
      <trkpt lat="51.227773648763" lon="4.46842274122">
        <ele>1.2</ele>
        <time>2019-01-24T22:29:42Z</time>
      </trkpt>
      <trkpt lat="51.227699971862" lon="4.468162483225">
        <ele>0.4</ele>
        <time>2019-01-24T22:29:50Z</time>
      </trkpt>
      <trkpt lat="51.227608860609" lon="4.467884120326">
        <ele>0</ele>
        <time>2019-01-24T22:29:58Z</time>
      </trkpt>
      <trkpt lat="51.227522024125" lon="4.467619839019">
        <ele>0</ele>
        <time>2019-01-24T22:30:05Z</time>
      </trkpt>
      <trkpt lat="51.227435690555" lon="4.467329992917">
        <ele>0</ele>
        <time>2019-01-24T22:30:13Z</time>
      </trkpt>
      <trkpt lat="51.227357152152" lon="4.467054479864">
        <ele>0</ele>
        <time>2019-01-24T22:30:20Z</time>
      </trkpt>
      <trkpt lat="51.22740509662" lon="4.46686873696">
        <ele>0</ele>
        <time>2019-01-24T22:30:26Z</time>
      </trkpt>
      <trkpt lat="51.227599640519" lon="4.466902516017">
        <ele>0</ele>
        <time>2019-01-24T22:30:34Z</time>
      </trkpt>
      <trkpt lat="51.227769290175" lon="4.46675390493">
        <ele>0</ele>
        <time>2019-01-24T22:30:42Z</time>
      </trkpt>
      <trkpt lat="51.227882278187" lon="4.466527677449">
        <ele>0</ele>
        <time>2019-01-24T22:30:48Z</time>
      </trkpt>
      <trkpt lat="51.228002474633" lon="4.466285943453">
        <ele>0</ele>
        <time>2019-01-24T22:30:55Z</time>
      </trkpt>
      <trkpt lat="51.228160221991" lon="4.466090561364">
        <ele>2.2</ele>
        <time>2019-01-24T22:31:03Z</time>
      </trkpt>
      <trkpt lat="51.228313778399" lon="4.465893586714">
        <ele>3.2</ele>
        <time>2019-01-24T22:31:11Z</time>
      </trkpt>
      <trkpt lat="51.228478398915" lon="4.465702982308">
        <ele>1.8</ele>
        <time>2019-01-24T22:31:19Z</time>
      </trkpt>
      <trkpt lat="51.228581580104" lon="4.465476251913">
        <ele>2.6</ele>
        <time>2019-01-24T22:31:26Z</time>
      </trkpt>
      <trkpt lat="51.228578394982" lon="4.465186321992">
        <ele>0</ele>
        <time>2019-01-24T22:31:34Z</time>
      </trkpt>
      <trkpt lat="51.228566325046" lon="4.464900080107">
        <ele>0</ele>
        <time>2019-01-24T22:31:42Z</time>
      </trkpt>
      <trkpt lat="51.228556937318" lon="4.464596655327">
        <ele>0</ele>
        <time>2019-01-24T22:31:50Z</time>
      </trkpt>
      <trkpt lat="51.228601780483" lon="4.464315107306">
        <ele>5.2</ele>
        <time>2019-01-24T22:31:57Z</time>
      </trkpt>
      <trkpt lat="51.22878643374" lon="4.464194156489">
        <ele>10.2</ele>
        <time>2019-01-24T22:32:05Z</time>
      </trkpt>
      <trkpt lat="51.228981648191" lon="4.464190887548">
        <ele>6.6</ele>
        <time>2019-01-24T22:32:12Z</time>
      </trkpt>
      <trkpt lat="51.229057504386" lon="4.46410857729">
        <ele>7</ele>
        <time>2019-01-24T22:32:16Z</time>
      </trkpt>
      <trkpt lat="51.229058677852" lon="4.463795178049">
        <ele>5</ele>
        <time>2019-01-24T22:32:24Z</time>
      </trkpt>
      <trkpt lat="51.229044009527" lon="4.463507008327">
        <ele>4</ele>
        <time>2019-01-24T22:32:31Z</time>
      </trkpt>
      <trkpt lat="51.228999417819" lon="4.46318992105">
        <ele>5</ele>
        <time>2019-01-24T22:32:39Z</time>
      </trkpt>
      <trkpt lat="51.22898592296" lon="4.462870403022">
        <ele>3.6</ele>
        <time>2019-01-24T22:32:47Z</time>
      </trkpt>
      <trkpt lat="51.228991371195" lon="4.46256882226">
        <ele>3</ele>
        <time>2019-01-24T22:32:55Z</time>
      </trkpt>
      <trkpt lat="51.229046440278" lon="4.462380480967">
        <ele>0</ele>
        <time>2019-01-24T22:33:02Z</time>
      </trkpt>
      <trkpt lat="51.229166804362" lon="4.4626325247">
        <ele>0</ele>
        <time>2019-01-24T22:33:09Z</time>
      </trkpt>
      <trkpt lat="51.229172504054" lon="4.462942822638">
        <ele>5.8</ele>
        <time>2019-01-24T22:33:16Z</time>
      </trkpt>
      <trkpt lat="51.229162026679" lon="4.463003339956">
        <ele>11</ele>
        <time>2019-01-24T22:33:18Z</time>
      </trkpt>
      <trkpt lat="51.229190608958" lon="4.463026976914">
        <ele>12.2</ele>
        <time>2019-01-24T22:33:20Z</time>
      </trkpt>
      <trkpt lat="51.229386493961" lon="4.462981966111">
        <ele>12.4</ele>
        <time>2019-01-24T22:33:29Z</time>
      </trkpt>
      <trkpt lat="51.229571733951" lon="4.462951791271">
        <ele>4</ele>
        <time>2019-01-24T22:33:36Z</time>
      </trkpt>
      <trkpt lat="51.229769462972" lon="4.462899823491">
        <ele>0</ele>
        <time>2019-01-24T22:33:43Z</time>
      </trkpt>
      <trkpt lat="51.229961743758" lon="4.462870151565">
        <ele>0</ele>
        <time>2019-01-24T22:33:50Z</time>
      </trkpt>
      <trkpt lat="51.230142792798" lon="4.46286302695">
        <ele>0</ele>
        <time>2019-01-24T22:33:57Z</time>
      </trkpt>
      <trkpt lat="51.230182606823" lon="4.462875851257">
        <ele>0</ele>
        <time>2019-01-24T22:33:58Z</time>
      </trkpt>
      <trkpt lat="51.230316298128" lon="4.463077855047">
        <ele>0</ele>
        <time>2019-01-24T22:34:06Z</time>
      </trkpt>
      <trkpt lat="51.230471447097" lon="4.46317483363">
        <ele>0</ele>
        <time>2019-01-24T22:34:15Z</time>
      </trkpt>
      <trkpt lat="51.230659872209" lon="4.463110041543">
        <ele>0</ele>
        <time>2019-01-24T22:34:24Z</time>
      </trkpt>
      <trkpt lat="51.230844274009" lon="4.463049440406">
        <ele>0</ele>
        <time>2019-01-24T22:34:31Z</time>
      </trkpt>
      <trkpt lat="51.231031525655" lon="4.46303569409">
        <ele>0</ele>
        <time>2019-01-24T22:34:38Z</time>
      </trkpt>
      <trkpt lat="51.231227829753" lon="4.463069389328">
        <ele>1.8</ele>
        <time>2019-01-24T22:34:47Z</time>
      </trkpt>
      <trkpt lat="51.231329669838" lon="4.463033766253">
        <ele>1.8</ele>
        <time>2019-01-24T22:34:53Z</time>
      </trkpt>
      <trkpt lat="51.231287173605" lon="4.462741070305">
        <ele>3.2</ele>
        <time>2019-01-24T22:35:03Z</time>
      </trkpt>
      <trkpt lat="51.231169491729" lon="4.462515932471">
        <ele>0.8</ele>
        <time>2019-01-24T22:35:11Z</time>
      </trkpt>
      <trkpt lat="51.23113839488" lon="4.462236563744">
        <ele>0</ele>
        <time>2019-01-24T22:35:19Z</time>
      </trkpt>
      <trkpt lat="51.231140993269" lon="4.461958703759">
        <ele>0</ele>
        <time>2019-01-24T22:35:26Z</time>
      </trkpt>
      <trkpt lat="51.231218274387" lon="4.461706827664">
        <ele>0</ele>
        <time>2019-01-24T22:35:34Z</time>
      </trkpt>
      <trkpt lat="51.231394545744" lon="4.461631977297">
        <ele>0</ele>
        <time>2019-01-24T22:35:42Z</time>
      </trkpt>
      <trkpt lat="51.231568470169" lon="4.461539776397">
        <ele>0</ele>
        <time>2019-01-24T22:35:49Z</time>
      </trkpt>
      <trkpt lat="51.231737868368" lon="4.461401307409">
        <ele>0</ele>
        <time>2019-01-24T22:35:57Z</time>
      </trkpt>
      <trkpt lat="51.231808276328" lon="4.461386890541">
        <ele>0</ele>
        <time>2019-01-24T22:36:03Z</time>
      </trkpt>
      <trkpt lat="51.231990079739" lon="4.46144816223">
        <ele>0</ele>
        <time>2019-01-24T22:36:11Z</time>
      </trkpt>
      <trkpt lat="51.232078927879" lon="4.461670198761">
        <ele>0</ele>
        <time>2019-01-24T22:36:18Z</time>
      </trkpt>
      <trkpt lat="51.232113377488" lon="4.461980580518">
        <ele>0</ele>
        <time>2019-01-24T22:36:26Z</time>
      </trkpt>
      <trkpt lat="51.232176493195" lon="4.462271935362">
        <ele>8.4</ele>
        <time>2019-01-24T22:36:33Z</time>
      </trkpt>
      <trkpt lat="51.232249918639" lon="4.462535043203">
        <ele>18.4</ele>
        <time>2019-01-24T22:36:40Z</time>
      </trkpt>
      <trkpt lat="51.232303562799" lon="4.462828409703">
        <ele>19.4</ele>
        <time>2019-01-24T22:36:47Z</time>
      </trkpt>
      <trkpt lat="51.232358464244" lon="4.463112891389">
        <ele>17.6</ele>
        <time>2019-01-24T22:36:54Z</time>
      </trkpt>
      <trkpt lat="51.232425267987" lon="4.463373819936">
        <ele>13.2</ele>
        <time>2019-01-24T22:37:02Z</time>
      </trkpt>
      <trkpt lat="51.232496430318" lon="4.463664923323">
        <ele>12.4</ele>
        <time>2019-01-24T22:37:09Z</time>
      </trkpt>
      <trkpt lat="51.23249626268" lon="4.463978154926">
        <ele>8.2</ele>
        <time>2019-01-24T22:37:16Z</time>
      </trkpt>
      <trkpt lat="51.23244597128" lon="4.464301444809">
        <ele>13.4</ele>
        <time>2019-01-24T22:37:23Z</time>
      </trkpt>
      <trkpt lat="51.232347400136" lon="4.464553153266">
        <ele>14.4</ele>
        <time>2019-01-24T22:37:29Z</time>
      </trkpt>
      <trkpt lat="51.232246817336" lon="4.464827911948">
        <ele>11.8</ele>
        <time>2019-01-24T22:37:36Z</time>
      </trkpt>
      <trkpt lat="51.232135086609" lon="4.465098312042">
        <ele>9</ele>
        <time>2019-01-24T22:37:44Z</time>
      </trkpt>
      <trkpt lat="51.232033414162" lon="4.465352199793">
        <ele>7</ele>
        <time>2019-01-24T22:37:51Z</time>
      </trkpt>
      <trkpt lat="51.231928305136" lon="4.465590413391">
        <ele>6</ele>
        <time>2019-01-24T22:37:58Z</time>
      </trkpt>
      <trkpt lat="51.231803414826" lon="4.465832315025">
        <ele>5.8</ele>
        <time>2019-01-24T22:38:05Z</time>
      </trkpt>
      <trkpt lat="51.23169243847" lon="4.466078072333">
        <ele>4.6</ele>
        <time>2019-01-24T22:38:12Z</time>
      </trkpt>
      <trkpt lat="51.231564949771" lon="4.46630631147">
        <ele>5.6</ele>
        <time>2019-01-24T22:38:19Z</time>
      </trkpt>
      <trkpt lat="51.231449950103" lon="4.466534718245">
        <ele>2.6</ele>
        <time>2019-01-24T22:38:26Z</time>
      </trkpt>
      <trkpt lat="51.231341823593" lon="4.466764466124">
        <ele>5.4</ele>
        <time>2019-01-24T22:38:33Z</time>
      </trkpt>
      <trkpt lat="51.2311953918" lon="4.466910227365">
        <ele>7</ele>
        <time>2019-01-24T22:38:41Z</time>
      </trkpt>
      <trkpt lat="51.231072596965" lon="4.466700679865">
        <ele>5</ele>
        <time>2019-01-24T22:38:48Z</time>
      </trkpt>
      <trkpt lat="51.231060191753" lon="4.466619207797">
        <ele>4.2</ele>
        <time>2019-01-24T22:38:49Z</time>
      </trkpt>
      <trkpt lat="51.231122133994" lon="4.466335480482">
        <ele>2</ele>
        <time>2019-01-24T22:38:57Z</time>
      </trkpt>
      <trkpt lat="51.23119371542" lon="4.466048568045">
        <ele>0</ele>
        <time>2019-01-24T22:39:05Z</time>
      </trkpt>
      <trkpt lat="51.231261105896" lon="4.465773725544">
        <ele>0</ele>
        <time>2019-01-24T22:39:13Z</time>
      </trkpt>
      <trkpt lat="51.231265045389" lon="4.465717818271">
        <ele>0</ele>
        <time>2019-01-24T22:39:14Z</time>
      </trkpt>
      <trkpt lat="51.231281306275" lon="4.465412298016">
        <ele>0</ele>
        <time>2019-01-24T22:39:23Z</time>
      </trkpt>
      <trkpt lat="51.231310475287" lon="4.465094707825">
        <ele>0</ele>
        <time>2019-01-24T22:39:31Z</time>
      </trkpt>
      <trkpt lat="51.231342242688" lon="4.464777620548">
        <ele>0</ele>
        <time>2019-01-24T22:39:39Z</time>
      </trkpt>
      <trkpt lat="51.23133872229" lon="4.464584920667">
        <ele>0</ele>
        <time>2019-01-24T22:39:44Z</time>
      </trkpt>
      <trkpt lat="51.231286670691" lon="4.464317873333">
        <ele>0</ele>
        <time>2019-01-24T22:39:52Z</time>
      </trkpt>
      <trkpt lat="51.231250628521" lon="4.464021824625">
        <ele>0</ele>
        <time>2019-01-24T22:39:59Z</time>
      </trkpt>
      <trkpt lat="51.231308966545" lon="4.463739186957">
        <ele>0</ele>
        <time>2019-01-24T22:40:06Z</time>
      </trkpt>
      <trkpt lat="51.231350792226" lon="4.463456046375">
        <ele>0</ele>
        <time>2019-01-24T22:40:13Z</time>
      </trkpt>
      <trkpt lat="51.231334196064" lon="4.463141389849">
        <ele>0</ele>
        <time>2019-01-24T22:40:21Z</time>
      </trkpt>
      <trkpt lat="51.231307541622" lon="4.463108532801">
        <ele>0</ele>
        <time>2019-01-24T22:40:22Z</time>
      </trkpt>
      <trkpt lat="51.231288682347" lon="4.463108365163">
        <ele>0</ele>
        <time>2019-01-24T22:40:24Z</time>
      </trkpt>
      <trkpt lat="51.231105118737" lon="4.463168547205">
        <ele>1.2</ele>
        <time>2019-01-24T22:40:34Z</time>
      </trkpt>
      <trkpt lat="51.230922309498" lon="4.463156141993">
        <ele>2.8</ele>
        <time>2019-01-24T22:40:41Z</time>
      </trkpt>
      <trkpt lat="51.230727262685" lon="4.463234931853">
        <ele>7.4</ele>
        <time>2019-01-24T22:40:50Z</time>
      </trkpt>
      <trkpt lat="51.230456862591" lon="4.463280697027">
        <ele>8.4</ele>
        <time>2019-01-24T22:41:00Z</time>
      </trkpt>
      <trkpt lat="51.230267012556" lon="4.463199224959">
        <ele>7.4</ele>
        <time>2019-01-24T22:41:07Z</time>
      </trkpt>
      <trkpt lat="51.230216972613" lon="4.463159159477">
        <ele>5.8</ele>
        <time>2019-01-24T22:41:09Z</time>
      </trkpt>
      <trkpt lat="51.230109013741" lon="4.462891190134">
        <ele>0.4</ele>
        <time>2019-01-24T22:41:17Z</time>
      </trkpt>
      <trkpt lat="51.230029720967" lon="4.462589022639">
        <ele>0</ele>
        <time>2019-01-24T22:41:25Z</time>
      </trkpt>
      <trkpt lat="51.229981105947" lon="4.462302864573">
        <ele>0</ele>
        <time>2019-01-24T22:41:33Z</time>
      </trkpt>
      <trkpt lat="51.22988278626" lon="4.462028860262">
        <ele>0</ele>
        <time>2019-01-24T22:41:41Z</time>
      </trkpt>
      <trkpt lat="51.229805840418" lon="4.461748820983">
        <ele>0</ele>
        <time>2019-01-24T22:41:49Z</time>
      </trkpt>
      <trkpt lat="51.229757560674" lon="4.461446234393">
        <ele>0</ele>
        <time>2019-01-24T22:41:57Z</time>
      </trkpt>
      <trkpt lat="51.229664270127" lon="4.461164267277">
        <ele>0</ele>
        <time>2019-01-24T22:42:05Z</time>
      </trkpt>
      <trkpt lat="51.229506858045" lon="4.461029653963">
        <ele>0</ele>
        <time>2019-01-24T22:42:13Z</time>
      </trkpt>
      <trkpt lat="51.229433097325" lon="4.460768893054">
        <ele>0</ele>
        <time>2019-01-24T22:42:22Z</time>
      </trkpt>
      <trkpt lat="51.229328239756" lon="4.460549874007">
        <ele>0</ele>
        <time>2019-01-24T22:42:31Z</time>
      </trkpt>
      <trkpt lat="51.229148364182" lon="4.46059320843">
        <ele>0</ele>
        <time>2019-01-24T22:42:38Z</time>
      </trkpt>
      <trkpt lat="51.228955412844" lon="4.460686498977">
        <ele>0</ele>
        <time>2019-01-24T22:42:46Z</time>
      </trkpt>
      <trkpt lat="51.228779225306" lon="4.460844078697">
        <ele>0</ele>
        <time>2019-01-24T22:42:54Z</time>
      </trkpt>
      <trkpt lat="51.228611922582" lon="4.460967124989">
        <ele>0</ele>
        <time>2019-01-24T22:43:04Z</time>
      </trkpt>
      <trkpt lat="51.228479404743" lon="4.460938291253">
        <ele>0</ele>
        <time>2019-01-24T22:43:09Z</time>
      </trkpt>
      <trkpt lat="51.228298690979" lon="4.460718769292">
        <ele>0</ele>
        <time>2019-01-24T22:43:16Z</time>
      </trkpt>
      <trkpt lat="51.228257452031" lon="4.460552807672">
        <ele>0</ele>
        <time>2019-01-24T22:43:19Z</time>
      </trkpt>
      <trkpt lat="51.228194755419" lon="4.460544844867">
        <ele>2</ele>
        <time>2019-01-24T22:43:23Z</time>
      </trkpt>
      <trkpt lat="51.228309755087" lon="4.460742825345">
        <ele>0</ele>
        <time>2019-01-24T22:43:32Z</time>
      </trkpt>
      <trkpt lat="51.228463814409" lon="4.46089411864">
        <ele>0</ele>
        <time>2019-01-24T22:43:41Z</time>
      </trkpt>
      <trkpt lat="51.228627345278" lon="4.461053123283">
        <ele>0</ele>
        <time>2019-01-24T22:43:49Z</time>
      </trkpt>
      <trkpt lat="51.228802107893" lon="4.461086231788">
        <ele>0</ele>
        <time>2019-01-24T22:43:59Z</time>
      </trkpt>
      <trkpt lat="51.229010565746" lon="4.461029402506">
        <ele>0</ele>
        <time>2019-01-24T22:44:06Z</time>
      </trkpt>
      <trkpt lat="51.229215922296" lon="4.460977434726">
        <ele>0</ele>
        <time>2019-01-24T22:44:13Z</time>
      </trkpt>
      <trkpt lat="51.229415579154" lon="4.460945332049">
        <ele>0</ele>
        <time>2019-01-24T22:44:20Z</time>
      </trkpt>
      <trkpt lat="51.229593359253" lon="4.460869643492">
        <ele>0</ele>
        <time>2019-01-24T22:44:26Z</time>
      </trkpt>
      <trkpt lat="51.22978136527" lon="4.460841731765">
        <ele>0</ele>
        <time>2019-01-24T22:44:33Z</time>
      </trkpt>
      <trkpt lat="51.22996492888" lon="4.460762941905">
        <ele>0</ele>
        <time>2019-01-24T22:44:40Z</time>
      </trkpt>
      <trkpt lat="51.23015771258" lon="4.460688007719">
        <ele>0.8</ele>
        <time>2019-01-24T22:44:48Z</time>
      </trkpt>
      <trkpt lat="51.230353262307" lon="4.460622796537">
        <ele>2.4</ele>
        <time>2019-01-24T22:44:56Z</time>
      </trkpt>
      <trkpt lat="51.230533137881" lon="4.460556579527">
        <ele>2.6</ele>
        <time>2019-01-24T22:45:03Z</time>
      </trkpt>
      <trkpt lat="51.230543782894" lon="4.46053453513">
        <ele>2.4</ele>
        <time>2019-01-24T22:45:04Z</time>
      </trkpt>
      <trkpt lat="51.230507573086" lon="4.460249299073">
        <ele>1</ele>
        <time>2019-01-24T22:45:12Z</time>
      </trkpt>
      <trkpt lat="51.230475721866" lon="4.459931792701">
        <ele>0</ele>
        <time>2019-01-24T22:45:20Z</time>
      </trkpt>
      <trkpt lat="51.230447307225" lon="4.459642617151">
        <ele>0</ele>
        <time>2019-01-24T22:45:27Z</time>
      </trkpt>
      <trkpt lat="51.230427106846" lon="4.459314549585">
        <ele>0</ele>
        <time>2019-01-24T22:45:34Z</time>
      </trkpt>
      <trkpt lat="51.230394752712" lon="4.459011795357">
        <ele>0</ele>
        <time>2019-01-24T22:45:41Z</time>
      </trkpt>
      <trkpt lat="51.230269275669" lon="4.458804930065">
        <ele>0</ele>
        <time>2019-01-24T22:45:49Z</time>
      </trkpt>
      <trkpt lat="51.230224683961" lon="4.45881540744">
        <ele>0</ele>
        <time>2019-01-24T22:45:50Z</time>
      </trkpt>
      <trkpt lat="51.230031229709" lon="4.458880870079">
        <ele>0</ele>
        <time>2019-01-24T22:46:00Z</time>
      </trkpt>
      <trkpt lat="51.229931568918" lon="4.458665706706">
        <ele>0</ele>
        <time>2019-01-24T22:46:08Z</time>
      </trkpt>
      <trkpt lat="51.229884378821" lon="4.458356163139">
        <ele>0</ele>
        <time>2019-01-24T22:46:15Z</time>
      </trkpt>
      <trkpt lat="51.229813048852" lon="4.45805852187">
        <ele>0</ele>
        <time>2019-01-24T22:46:22Z</time>
      </trkpt>
      <trkpt lat="51.229785807677" lon="4.457776219478">
        <ele>0</ele>
        <time>2019-01-24T22:46:28Z</time>
      </trkpt>
      <trkpt lat="51.22975202862" lon="4.457460473305">
        <ele>0</ele>
        <time>2019-01-24T22:46:35Z</time>
      </trkpt>
      <trkpt lat="51.229717746649" lon="4.457153863403">
        <ele>0</ele>
        <time>2019-01-24T22:46:42Z</time>
      </trkpt>
      <trkpt lat="51.229787148781" lon="4.456869381717">
        <ele>0</ele>
        <time>2019-01-24T22:46:49Z</time>
      </trkpt>
      <trkpt lat="51.230097111443" lon="4.456719597164">
        <ele>3.6</ele>
        <time>2019-01-24T22:47:00Z</time>
      </trkpt>
      <trkpt lat="51.230271203506" lon="4.456553467906">
        <ele>8</ele>
        <time>2019-01-24T22:47:07Z</time>
      </trkpt>
      <trkpt lat="51.230421239516" lon="4.456432684727">
        <ele>11.2</ele>
        <time>2019-01-24T22:47:13Z</time>
      </trkpt>
    </trkseg>
  </trk>
</gpx>